sensor_id;sensor_type;location;lat;lon;timestamp;P1;durP1;ratioP1;P2;durP2;ratioP2
29044;SDS011;16133;49.486;12.176;2023-07-31T00:00:26;7.13;;;3.80;;
29044;SDS011;16133;49.486;12.176;2023-07-31T00:02:52;4.72;;;3.42;;
29044;SDS011;16133;49.486;12.176;2023-07-31T00:05:17;7.35;;;3.88;;
29044;SDS011;16133;49.486;12.176;2023-07-31T00:07:43;7.45;;;3.85;;
29044;SDS011;16133;49.486;12.176;2023-07-31T00:10:08;7.15;;;4.18;;
29044;SDS011;16133;49.486;12.176;2023-07-31T00:12:34;5.20;;;3.63;;
29044;SDS011;16133;49.486;12.176;2023-07-31T00:14:59;6.90;;;4.95;;
29044;SDS011;16133;49.486;12.176;2023-07-31T00:17:25;5.32;;;3.83;;
29044;SDS011;16133;49.486;12.176;2023-07-31T00:19:50;6.47;;;3.80;;
29044;SDS011;16133;49.486;12.176;2023-07-31T00:22:16;6.20;;;4.00;;
29044;SDS011;16133;49.486;12.176;2023-07-31T00:24:41;6.28;;;3.80;;
29044;SDS011;16133;49.486;12.176;2023-07-31T00:27:07;8.13;;;3.75;;
29044;SDS011;16133;49.486;12.176;2023-07-31T00:29:32;6.75;;;3.78;;
29044;SDS011;16133;49.486;12.176;2023-07-31T00:31:57;8.20;;;4.15;;
29044;SDS011;16133;49.486;12.176;2023-07-31T00:34:23;5.65;;;3.70;;
29044;SDS011;16133;49.486;12.176;2023-07-31T00:36:48;9.20;;;4.15;;
29044;SDS011;16133;49.486;12.176;2023-07-31T00:39:13;5.95;;;3.50;;
29044;SDS011;16133;49.486;12.176;2023-07-31T00:41:39;6.55;;;3.70;;
29044;SDS011;16133;49.486;12.176;2023-07-31T00:44:04;4.45;;;3.30;;
29044;SDS011;16133;49.486;12.176;2023-07-31T00:46:30;5.93;;;3.85;;
29044;SDS011;16133;49.486;12.176;2023-07-31T00:48:56;5.97;;;3.78;;
29044;SDS011;16133;49.486;12.176;2023-07-31T00:51:22;8.75;;;3.85;;
29044;SDS011;16133;49.486;12.176;2023-07-31T00:53:47;5.63;;;4.32;;
29044;SDS011;16133;49.486;12.176;2023-07-31T00:56:13;5.40;;;3.22;;
29044;SDS011;16133;49.486;12.176;2023-07-31T00:58:38;7.30;;;3.95;;
29044;SDS011;16133;49.486;12.176;2023-07-31T01:01:05;6.55;;;3.85;;
29044;SDS011;16133;49.486;12.176;2023-07-31T01:03:31;7.85;;;4.00;;
29044;SDS011;16133;49.486;12.176;2023-07-31T01:06:02;8.45;;;4.35;;
29044;SDS011;16133;49.486;12.176;2023-07-31T01:11:26;5.80;;;3.88;;
29044;SDS011;16133;49.486;12.176;2023-07-31T01:13:53;6.60;;;4.00;;
29044;SDS011;16133;49.486;12.176;2023-07-31T01:16:20;9.38;;;4.38;;
29044;SDS011;16133;49.486;12.176;2023-07-31T01:18:45;5.40;;;3.78;;
29044;SDS011;16133;49.486;12.176;2023-07-31T01:23:50;6.72;;;3.95;;
29044;SDS011;16133;49.486;12.176;2023-07-31T01:26:30;6.25;;;3.88;;
29044;SDS011;16133;49.486;12.176;2023-07-31T01:31:46;5.20;;;3.40;;
29044;SDS011;16133;49.486;12.176;2023-07-31T01:34:15;6.35;;;4.35;;
29044;SDS011;16133;49.486;12.176;2023-07-31T01:36:43;6.35;;;3.88;;
29044;SDS011;16133;49.486;12.176;2023-07-31T01:39:08;7.88;;;4.18;;
29044;SDS011;16133;49.486;12.176;2023-07-31T01:41:34;6.70;;;4.07;;
29044;SDS011;16133;49.486;12.176;2023-07-31T01:43:59;7.55;;;4.40;;
29044;SDS011;16133;49.486;12.176;2023-07-31T01:46:25;7.80;;;4.72;;
29044;SDS011;16133;49.486;12.176;2023-07-31T01:48:50;7.20;;;4.65;;
29044;SDS011;16133;49.486;12.176;2023-07-31T01:51:16;6.22;;;4.43;;
29044;SDS011;16133;49.486;12.176;2023-07-31T01:53:41;8.27;;;4.97;;
29044;SDS011;16133;49.486;12.176;2023-07-31T01:56:07;7.82;;;4.82;;
29044;SDS011;16133;49.486;12.176;2023-07-31T01:58:32;7.97;;;5.13;;
29044;SDS011;16133;49.486;12.176;2023-07-31T02:00:57;8.25;;;5.25;;
29044;SDS011;16133;49.486;12.176;2023-07-31T02:03:23;7.40;;;4.68;;
29044;SDS011;16133;49.486;12.176;2023-07-31T02:05:48;8.70;;;4.75;;
29044;SDS011;16133;49.486;12.176;2023-07-31T02:08:14;11.00;;;5.43;;
29044;SDS011;16133;49.486;12.176;2023-07-31T02:10:40;8.13;;;4.80;;
29044;SDS011;16133;49.486;12.176;2023-07-31T02:13:05;7.35;;;4.85;;
29044;SDS011;16133;49.486;12.176;2023-07-31T02:15:31;8.10;;;4.90;;
29044;SDS011;16133;49.486;12.176;2023-07-31T02:17:56;8.68;;;5.18;;
29044;SDS011;16133;49.486;12.176;2023-07-31T02:20:22;9.65;;;5.35;;
29044;SDS011;16133;49.486;12.176;2023-07-31T02:22:50;7.20;;;4.68;;
29044;SDS011;16133;49.486;12.176;2023-07-31T02:25:16;8.48;;;4.47;;
29044;SDS011;16133;49.486;12.176;2023-07-31T02:27:41;8.63;;;5.05;;
29044;SDS011;16133;49.486;12.176;2023-07-31T02:30:07;6.05;;;4.35;;
29044;SDS011;16133;49.486;12.176;2023-07-31T02:32:33;8.48;;;4.53;;
29044;SDS011;16133;49.486;12.176;2023-07-31T02:34:58;8.80;;;5.28;;
29044;SDS011;16133;49.486;12.176;2023-07-31T02:37:23;7.53;;;5.03;;
29044;SDS011;16133;49.486;12.176;2023-07-31T02:39:49;11.68;;;4.97;;
29044;SDS011;16133;49.486;12.176;2023-07-31T02:42:15;7.88;;;5.20;;
29044;SDS011;16133;49.486;12.176;2023-07-31T02:44:40;6.45;;;4.68;;
29044;SDS011;16133;49.486;12.176;2023-07-31T02:47:05;7.85;;;4.47;;
29044;SDS011;16133;49.486;12.176;2023-07-31T02:49:31;10.30;;;5.30;;
29044;SDS011;16133;49.486;12.176;2023-07-31T02:51:57;8.48;;;4.70;;
29044;SDS011;16133;49.486;12.176;2023-07-31T02:54:22;12.27;;;4.43;;
29044;SDS011;16133;49.486;12.176;2023-07-31T02:56:47;8.00;;;4.22;;
29044;SDS011;16133;49.486;12.176;2023-07-31T02:59:14;9.60;;;5.57;;
29044;SDS011;16133;49.486;12.176;2023-07-31T03:01:39;8.02;;;4.72;;
29044;SDS011;16133;49.486;12.176;2023-07-31T03:04:05;6.60;;;4.30;;
29044;SDS011;16133;49.486;12.176;2023-07-31T03:06:30;9.15;;;4.50;;
29044;SDS011;16133;49.486;12.176;2023-07-31T03:08:56;5.57;;;3.67;;
29044;SDS011;16133;49.486;12.176;2023-07-31T03:11:21;8.38;;;4.07;;
29044;SDS011;16133;49.486;12.176;2023-07-31T03:13:46;6.70;;;3.92;;
29044;SDS011;16133;49.486;12.176;2023-07-31T03:16:12;6.25;;;4.00;;
29044;SDS011;16133;49.486;12.176;2023-07-31T03:18:38;7.72;;;4.15;;
29044;SDS011;16133;49.486;12.176;2023-07-31T03:21:04;7.18;;;3.70;;
29044;SDS011;16133;49.486;12.176;2023-07-31T03:23:29;6.60;;;3.97;;
29044;SDS011;16133;49.486;12.176;2023-07-31T03:26:02;7.68;;;3.75;;
29044;SDS011;16133;49.486;12.176;2023-07-31T03:28:28;7.18;;;3.55;;
29044;SDS011;16133;49.486;12.176;2023-07-31T03:30:54;5.70;;;3.97;;
29044;SDS011;16133;49.486;12.176;2023-07-31T03:33:20;5.40;;;3.70;;
29044;SDS011;16133;49.486;12.176;2023-07-31T03:35:45;6.93;;;3.45;;
29044;SDS011;16133;49.486;12.176;2023-07-31T03:38:11;6.13;;;4.05;;
29044;SDS011;16133;49.486;12.176;2023-07-31T03:40:36;5.22;;;3.30;;
29044;SDS011;16133;49.486;12.176;2023-07-31T03:43:01;9.07;;;3.63;;
29044;SDS011;16133;49.486;12.176;2023-07-31T03:45:27;4.40;;;3.50;;
29044;SDS011;16133;49.486;12.176;2023-07-31T03:47:52;7.13;;;3.40;;
29044;SDS011;16133;49.486;12.176;2023-07-31T03:50:19;5.97;;;3.22;;
29044;SDS011;16133;49.486;12.176;2023-07-31T03:52:45;6.00;;;3.95;;
29044;SDS011;16133;49.486;12.176;2023-07-31T03:55:10;5.35;;;3.05;;
29044;SDS011;16133;49.486;12.176;2023-07-31T03:57:36;7.53;;;3.00;;
29044;SDS011;16133;49.486;12.176;2023-07-31T04:00:01;7.22;;;2.67;;
29044;SDS011;16133;49.486;12.176;2023-07-31T04:02:27;9.10;;;3.00;;
29044;SDS011;16133;49.486;12.176;2023-07-31T04:04:52;6.30;;;2.58;;
29044;SDS011;16133;49.486;12.176;2023-07-31T04:07:17;7.93;;;3.33;;
29044;SDS011;16133;49.486;12.176;2023-07-31T04:09:43;4.85;;;2.90;;
29044;SDS011;16133;49.486;12.176;2023-07-31T04:12:08;5.57;;;3.50;;
29044;SDS011;16133;49.486;12.176;2023-07-31T04:14:33;7.65;;;2.95;;
29044;SDS011;16133;49.486;12.176;2023-07-31T04:16:59;4.80;;;2.22;;
29044;SDS011;16133;49.486;12.176;2023-07-31T04:19:24;4.03;;;2.28;;
29044;SDS011;16133;49.486;12.176;2023-07-31T04:21:50;2.28;;;1.80;;
29044;SDS011;16133;49.486;12.176;2023-07-31T04:24:15;5.28;;;2.08;;
29044;SDS011;16133;49.486;12.176;2023-07-31T04:26:40;5.50;;;2.20;;
29044;SDS011;16133;49.486;12.176;2023-07-31T04:29:06;7.95;;;2.58;;
29044;SDS011;16133;49.486;12.176;2023-07-31T04:31:32;3.30;;;2.45;;
29044;SDS011;16133;49.486;12.176;2023-07-31T04:33:58;4.70;;;2.20;;
29044;SDS011;16133;49.486;12.176;2023-07-31T04:36:23;7.82;;;2.35;;
29044;SDS011;16133;49.486;12.176;2023-07-31T04:38:49;3.90;;;2.10;;
29044;SDS011;16133;49.486;12.176;2023-07-31T04:41:14;3.45;;;2.47;;
29044;SDS011;16133;49.486;12.176;2023-07-31T04:43:40;5.90;;;2.45;;
29044;SDS011;16133;49.486;12.176;2023-07-31T04:46:06;5.03;;;2.58;;
29044;SDS011;16133;49.486;12.176;2023-07-31T04:48:31;4.38;;;2.08;;
29044;SDS011;16133;49.486;12.176;2023-07-31T04:50:56;4.25;;;1.90;;
29044;SDS011;16133;49.486;12.176;2023-07-31T04:53:22;3.97;;;2.08;;
29044;SDS011;16133;49.486;12.176;2023-07-31T04:55:47;3.38;;;2.20;;
29044;SDS011;16133;49.486;12.176;2023-07-31T04:58:12;2.10;;;1.55;;
29044;SDS011;16133;49.486;12.176;2023-07-31T05:00:38;5.72;;;2.20;;
29044;SDS011;16133;49.486;12.176;2023-07-31T05:03:03;5.78;;;2.80;;
29044;SDS011;16133;49.486;12.176;2023-07-31T05:05:29;2.90;;;2.20;;
29044;SDS011;16133;49.486;12.176;2023-07-31T05:07:55;3.17;;;2.08;;
29044;SDS011;16133;49.486;12.176;2023-07-31T05:10:20;6.13;;;2.53;;
29044;SDS011;16133;49.486;12.176;2023-07-31T05:12:46;2.00;;;1.10;;
29044;SDS011;16133;49.486;12.176;2023-07-31T05:15:11;2.67;;;1.10;;
29044;SDS011;16133;49.486;12.176;2023-07-31T05:17:37;3.58;;;1.40;;
29044;SDS011;16133;49.486;12.176;2023-07-31T05:20:02;2.90;;;1.70;;
29044;SDS011;16133;49.486;12.176;2023-07-31T05:22:27;1.73;;;1.10;;
29044;SDS011;16133;49.486;12.176;2023-07-31T05:24:53;2.08;;;1.15;;
29044;SDS011;16133;49.486;12.176;2023-07-31T05:27:19;2.60;;;1.10;;
29044;SDS011;16133;49.486;12.176;2023-07-31T05:29:44;3.25;;;1.17;;
29044;SDS011;16133;49.486;12.176;2023-07-31T05:32:10;2.17;;;1.10;;
29044;SDS011;16133;49.486;12.176;2023-07-31T05:34:36;2.25;;;1.15;;
29044;SDS011;16133;49.486;12.176;2023-07-31T05:37:02;2.95;;;1.40;;
29044;SDS011;16133;49.486;12.176;2023-07-31T05:39:27;3.28;;;1.17;;
29044;SDS011;16133;49.486;12.176;2023-07-31T05:41:52;3.47;;;1.23;;
29044;SDS011;16133;49.486;12.176;2023-07-31T05:44:18;2.35;;;1.13;;
29044;SDS011;16133;49.486;12.176;2023-07-31T05:46:43;2.22;;;1.00;;
29044;SDS011;16133;49.486;12.176;2023-07-31T05:49:08;3.00;;;1.40;;
29044;SDS011;16133;49.486;12.176;2023-07-31T05:51:34;2.75;;;1.20;;
29044;SDS011;16133;49.486;12.176;2023-07-31T05:53:59;2.55;;;1.42;;
29044;SDS011;16133;49.486;12.176;2023-07-31T05:56:24;2.13;;;1.13;;
29044;SDS011;16133;49.486;12.176;2023-07-31T05:58:52;4.05;;;1.48;;
29044;SDS011;16133;49.486;12.176;2023-07-31T06:01:17;2.47;;;1.48;;
29044;SDS011;16133;49.486;12.176;2023-07-31T06:03:43;3.00;;;1.10;;
29044;SDS011;16133;49.486;12.176;2023-07-31T06:06:08;2.83;;;1.52;;
29044;SDS011;16133;49.486;12.176;2023-07-31T06:08:34;4.20;;;1.50;;
29044;SDS011;16133;49.486;12.176;2023-07-31T06:11:00;3.50;;;1.92;;
29044;SDS011;16133;49.486;12.176;2023-07-31T06:13:25;3.03;;;1.77;;
29044;SDS011;16133;49.486;12.176;2023-07-31T06:15:50;5.93;;;1.60;;
29044;SDS011;16133;49.486;12.176;2023-07-31T06:18:16;3.22;;;1.52;;
29044;SDS011;16133;49.486;12.176;2023-07-31T06:20:41;4.85;;;1.67;;
29044;SDS011;16133;49.486;12.176;2023-07-31T06:23:07;2.83;;;1.90;;
29044;SDS011;16133;49.486;12.176;2023-07-31T06:25:32;2.28;;;1.25;;
29044;SDS011;16133;49.486;12.176;2023-07-31T06:27:58;8.10;;;1.85;;
29044;SDS011;16133;49.486;12.176;2023-07-31T06:30:23;4.35;;;1.40;;
29044;SDS011;16133;49.486;12.176;2023-07-31T06:32:49;3.60;;;1.58;;
29044;SDS011;16133;49.486;12.176;2023-07-31T06:35:14;4.63;;;1.52;;
29044;SDS011;16133;49.486;12.176;2023-07-31T06:37:40;3.53;;;1.30;;
29044;SDS011;16133;49.486;12.176;2023-07-31T06:40:08;3.65;;;1.50;;
29044;SDS011;16133;49.486;12.176;2023-07-31T06:42:34;4.70;;;1.48;;
29044;SDS011;16133;49.486;12.176;2023-07-31T06:45:00;2.28;;;1.00;;
29044;SDS011;16133;49.486;12.176;2023-07-31T06:47:26;4.03;;;1.52;;
29044;SDS011;16133;49.486;12.176;2023-07-31T06:49:51;3.72;;;1.58;;
29044;SDS011;16133;49.486;12.176;2023-07-31T06:52:17;3.22;;;1.58;;
29044;SDS011;16133;49.486;12.176;2023-07-31T06:54:42;3.20;;;1.25;;
29044;SDS011;16133;49.486;12.176;2023-07-31T06:57:07;2.75;;;0.95;;
29044;SDS011;16133;49.486;12.176;2023-07-31T06:59:33;5.75;;;1.55;;
29044;SDS011;16133;49.486;12.176;2023-07-31T07:01:58;4.47;;;1.50;;
29044;SDS011;16133;49.486;12.176;2023-07-31T07:04:24;2.30;;;1.50;;
29044;SDS011;16133;49.486;12.176;2023-07-31T07:06:49;4.20;;;1.63;;
29044;SDS011;16133;49.486;12.176;2023-07-31T07:09:14;2.17;;;1.13;;
29044;SDS011;16133;49.486;12.176;2023-07-31T07:11:40;3.88;;;1.10;;
29044;SDS011;16133;49.486;12.176;2023-07-31T07:14:05;2.35;;;1.38;;
29044;SDS011;16133;49.486;12.176;2023-07-31T07:16:31;3.47;;;1.17;;
29044;SDS011;16133;49.486;12.176;2023-07-31T07:18:56;3.50;;;1.40;;
29044;SDS011;16133;49.486;12.176;2023-07-31T07:21:22;4.45;;;1.63;;
29044;SDS011;16133;49.486;12.176;2023-07-31T07:23:48;3.05;;;1.35;;
29044;SDS011;16133;49.486;12.176;2023-07-31T07:26:13;3.40;;;1.15;;
29044;SDS011;16133;49.486;12.176;2023-07-31T07:28:38;3.95;;;1.42;;
29044;SDS011;16133;49.486;12.176;2023-07-31T07:31:04;4.72;;;1.63;;
29044;SDS011;16133;49.486;12.176;2023-07-31T07:33:30;3.40;;;1.70;;
29044;SDS011;16133;49.486;12.176;2023-07-31T07:35:55;2.67;;;1.77;;
29044;SDS011;16133;49.486;12.176;2023-07-31T07:38:24;5.38;;;1.52;;
29044;SDS011;16133;49.486;12.176;2023-07-31T07:40:50;6.68;;;1.73;;
29044;SDS011;16133;49.486;12.176;2023-07-31T07:43:18;4.20;;;1.70;;
29044;SDS011;16133;49.486;12.176;2023-07-31T07:45:43;6.88;;;1.50;;
29044;SDS011;16133;49.486;12.176;2023-07-31T07:48:08;3.63;;;1.27;;
29044;SDS011;16133;49.486;12.176;2023-07-31T07:50:34;2.63;;;1.20;;
29044;SDS011;16133;49.486;12.176;2023-07-31T07:52:59;1.77;;;1.48;;
29044;SDS011;16133;49.486;12.176;2023-07-31T07:55:24;6.22;;;1.40;;
29044;SDS011;16133;49.486;12.176;2023-07-31T07:57:50;3.17;;;1.50;;
29044;SDS011;16133;49.486;12.176;2023-07-31T08:00:15;3.20;;;1.60;;
29044;SDS011;16133;49.486;12.176;2023-07-31T08:02:42;1.85;;;1.25;;
29044;SDS011;16133;49.486;12.176;2023-07-31T08:05:07;4.93;;;1.50;;
29044;SDS011;16133;49.486;12.176;2023-07-31T08:07:33;4.65;;;1.67;;
29044;SDS011;16133;49.486;12.176;2023-07-31T08:09:58;4.63;;;1.70;;
29044;SDS011;16133;49.486;12.176;2023-07-31T08:12:24;6.85;;;1.92;;
29044;SDS011;16133;49.486;12.176;2023-07-31T08:14:50;10.60;;;2.72;;
29044;SDS011;16133;49.486;12.176;2023-07-31T08:17:15;6.40;;;2.15;;
29044;SDS011;16133;49.486;12.176;2023-07-31T08:19:40;4.80;;;1.73;;
29044;SDS011;16133;49.486;12.176;2023-07-31T08:22:06;4.45;;;2.17;;
29044;SDS011;16133;49.486;12.176;2023-07-31T08:24:31;6.25;;;2.28;;
29044;SDS011;16133;49.486;12.176;2023-07-31T08:26:57;4.70;;;2.30;;
29044;SDS011;16133;49.486;12.176;2023-07-31T08:29:22;6.63;;;2.22;;
29044;SDS011;16133;49.486;12.176;2023-07-31T08:31:48;4.35;;;2.30;;
29044;SDS011;16133;49.486;12.176;2023-07-31T08:34:14;10.68;;;2.70;;
29044;SDS011;16133;49.486;12.176;2023-07-31T08:36:39;5.32;;;1.40;;
29044;SDS011;16133;49.486;12.176;2023-07-31T08:39:05;3.55;;;1.98;;
29044;SDS011;16133;49.486;12.176;2023-07-31T08:41:31;6.20;;;1.60;;
29044;SDS011;16133;49.486;12.176;2023-07-31T08:43:56;3.90;;;2.17;;
29044;SDS011;16133;49.486;12.176;2023-07-31T08:46:23;3.10;;;1.90;;
29044;SDS011;16133;49.486;12.176;2023-07-31T08:48:50;3.53;;;1.75;;
29044;SDS011;16133;49.486;12.176;2023-07-31T08:51:17;5.15;;;1.88;;
29044;SDS011;16133;49.486;12.176;2023-07-31T08:53:43;4.35;;;1.88;;
29044;SDS011;16133;49.486;12.176;2023-07-31T08:56:08;2.38;;;1.80;;
29044;SDS011;16133;49.486;12.176;2023-07-31T08:58:34;4.32;;;1.70;;
29044;SDS011;16133;49.486;12.176;2023-07-31T09:01:01;6.07;;;1.95;;
29044;SDS011;16133;49.486;12.176;2023-07-31T09:03:35;3.30;;;1.98;;
29044;SDS011;16133;49.486;12.176;2023-07-31T09:06:02;2.17;;;1.27;;
29044;SDS011;16133;49.486;12.176;2023-07-31T09:08:30;3.38;;;1.75;;
29044;SDS011;16133;49.486;12.176;2023-07-31T09:10:58;5.32;;;1.55;;
29044;SDS011;16133;49.486;12.176;2023-07-31T09:13:27;2.28;;;1.27;;
29044;SDS011;16133;49.486;12.176;2023-07-31T09:15:53;2.95;;;1.60;;
29044;SDS011;16133;49.486;12.176;2023-07-31T09:18:18;5.60;;;1.52;;
29044;SDS011;16133;49.486;12.176;2023-07-31T09:20:59;6.05;;;2.05;;
29044;SDS011;16133;49.486;12.176;2023-07-31T09:23:39;5.88;;;2.03;;
29044;SDS011;16133;49.486;12.176;2023-07-31T09:26:08;3.03;;;1.60;;
29044;SDS011;16133;49.486;12.176;2023-07-31T09:28:34;2.72;;;1.40;;
29044;SDS011;16133;49.486;12.176;2023-07-31T09:31:00;4.35;;;1.35;;
29044;SDS011;16133;49.486;12.176;2023-07-31T09:33:25;5.80;;;1.73;;
29044;SDS011;16133;49.486;12.176;2023-07-31T09:35:51;3.17;;;1.50;;
29044;SDS011;16133;49.486;12.176;2023-07-31T09:38:16;5.20;;;1.67;;
29044;SDS011;16133;49.486;12.176;2023-07-31T09:40:48;3.97;;;1.20;;
29044;SDS011;16133;49.486;12.176;2023-07-31T09:43:17;4.70;;;1.75;;
29044;SDS011;16133;49.486;12.176;2023-07-31T09:45:44;5.32;;;1.70;;
29044;SDS011;16133;49.486;12.176;2023-07-31T09:48:14;3.67;;;1.75;;
29044;SDS011;16133;49.486;12.176;2023-07-31T09:50:42;4.43;;;1.70;;
29044;SDS011;16133;49.486;12.176;2023-07-31T09:53:11;3.63;;;1.63;;
29044;SDS011;16133;49.486;12.176;2023-07-31T09:55:37;3.00;;;1.60;;
29044;SDS011;16133;49.486;12.176;2023-07-31T09:58:04;4.00;;;1.73;;
29044;SDS011;16133;49.486;12.176;2023-07-31T10:00:34;4.05;;;1.35;;
29044;SDS011;16133;49.486;12.176;2023-07-31T10:03:00;3.75;;;2.05;;
29044;SDS011;16133;49.486;12.176;2023-07-31T10:05:44;3.97;;;1.77;;
29044;SDS011;16133;49.486;12.176;2023-07-31T10:08:15;5.78;;;1.88;;
29044;SDS011;16133;49.486;12.176;2023-07-31T10:10:41;5.82;;;2.00;;
29044;SDS011;16133;49.486;12.176;2023-07-31T10:13:08;3.17;;;1.30;;
29044;SDS011;16133;49.486;12.176;2023-07-31T10:15:34;2.85;;;1.83;;
29044;SDS011;16133;49.486;12.176;2023-07-31T10:18:01;3.47;;;1.70;;
29044;SDS011;16133;49.486;12.176;2023-07-31T10:20:27;5.35;;;2.97;;
29044;SDS011;16133;49.486;12.176;2023-07-31T10:22:54;7.25;;;1.85;;
29044;SDS011;16133;49.486;12.176;2023-07-31T10:25:20;3.35;;;1.45;;
29044;SDS011;16133;49.486;12.176;2023-07-31T10:27:47;4.20;;;1.75;;
29044;SDS011;16133;49.486;12.176;2023-07-31T10:30:17;3.35;;;1.73;;
29044;SDS011;16133;49.486;12.176;2023-07-31T10:32:45;5.55;;;1.75;;
29044;SDS011;16133;49.486;12.176;2023-07-31T10:35:13;2.88;;;1.60;;
29044;SDS011;16133;49.486;12.176;2023-07-31T10:37:40;3.58;;;1.83;;
29044;SDS011;16133;49.486;12.176;2023-07-31T10:42:36;4.22;;;1.55;;
29044;SDS011;16133;49.486;12.176;2023-07-31T10:45:13;4.38;;;1.60;;
29044;SDS011;16133;49.486;12.176;2023-07-31T10:47:43;2.60;;;1.63;;
29044;SDS011;16133;49.486;12.176;2023-07-31T10:50:13;3.67;;;1.70;;
29044;SDS011;16133;49.486;12.176;2023-07-31T10:52:39;6.68;;;1.50;;
29044;SDS011;16133;49.486;12.176;2023-07-31T10:56:05;3.10;;;1.40;;
29044;SDS011;16133;49.486;12.176;2023-07-31T10:58:10;4.18;;;1.67;;
29044;SDS011;16133;49.486;12.176;2023-07-31T11:00:37;4.00;;;1.42;;
29044;SDS011;16133;49.486;12.176;2023-07-31T11:03:10;6.47;;;2.30;;
29044;SDS011;16133;49.486;12.176;2023-07-31T11:05:43;3.80;;;1.63;;
29044;SDS011;16133;49.486;12.176;2023-07-31T11:08:25;3.42;;;1.77;;
29044;SDS011;16133;49.486;12.176;2023-07-31T11:15:55;5.07;;;1.60;;
29044;SDS011;16133;49.486;12.176;2023-07-31T11:18:20;3.47;;;2.05;;
29044;SDS011;16133;49.486;12.176;2023-07-31T11:20:46;4.55;;;2.20;;
29044;SDS011;16133;49.486;12.176;2023-07-31T11:23:12;3.53;;;1.50;;
29044;SDS011;16133;49.486;12.176;2023-07-31T11:25:39;3.55;;;1.63;;
29044;SDS011;16133;49.486;12.176;2023-07-31T11:28:14;2.65;;;1.38;;
29044;SDS011;16133;49.486;12.176;2023-07-31T11:30:42;4.97;;;1.60;;
29044;SDS011;16133;49.486;12.176;2023-07-31T11:33:09;4.05;;;1.48;;
29044;SDS011;16133;49.486;12.176;2023-07-31T11:35:41;3.00;;;1.65;;
29044;SDS011;16133;49.486;12.176;2023-07-31T11:38:10;1.92;;;1.35;;
29044;SDS011;16133;49.486;12.176;2023-07-31T11:40:43;4.05;;;1.70;;
29044;SDS011;16133;49.486;12.176;2023-07-31T11:43:09;2.25;;;1.40;;
29044;SDS011;16133;49.486;12.176;2023-07-31T11:45:36;4.80;;;1.58;;
29044;SDS011;16133;49.486;12.176;2023-07-31T11:48:02;6.47;;;2.58;;
29044;SDS011;16133;49.486;12.176;2023-07-31T11:50:28;4.70;;;1.30;;
29044;SDS011;16133;49.486;12.176;2023-07-31T11:53:07;2.33;;;1.27;;
29044;SDS011;16133;49.486;12.176;2023-07-31T11:55:34;4.10;;;1.30;;
29044;SDS011;16133;49.486;12.176;2023-07-31T11:58:00;3.55;;;1.52;;
29044;SDS011;16133;49.486;12.176;2023-07-31T12:00:26;2.22;;;1.70;;
29044;SDS011;16133;49.486;12.176;2023-07-31T12:02:52;5.88;;;1.75;;
29044;SDS011;16133;49.486;12.176;2023-07-31T12:05:18;5.70;;;1.98;;
29044;SDS011;16133;49.486;12.176;2023-07-31T12:07:48;3.05;;;1.63;;
29044;SDS011;16133;49.486;12.176;2023-07-31T12:10:31;6.10;;;1.48;;
29044;SDS011;16133;49.486;12.176;2023-07-31T12:13:07;4.97;;;1.40;;
29044;SDS011;16133;49.486;12.176;2023-07-31T12:15:42;4.15;;;1.60;;
29044;SDS011;16133;49.486;12.176;2023-07-31T12:20:41;3.38;;;1.33;;
29044;SDS011;16133;49.486;12.176;2023-07-31T12:23:12;3.35;;;1.67;;
29044;SDS011;16133;49.486;12.176;2023-07-31T12:25:54;5.00;;;1.50;;
29044;SDS011;16133;49.486;12.176;2023-07-31T12:28:28;3.33;;;1.30;;
29044;SDS011;16133;49.486;12.176;2023-07-31T12:30:56;2.83;;;1.52;;
29044;SDS011;16133;49.486;12.176;2023-07-31T12:33:29;6.07;;;1.60;;
29044;SDS011;16133;49.486;12.176;2023-07-31T12:35:56;6.85;;;2.20;;
29044;SDS011;16133;49.486;12.176;2023-07-31T12:38:22;6.05;;;1.55;;
29044;SDS011;16133;49.486;12.176;2023-07-31T12:40:47;3.10;;;1.92;;
29044;SDS011;16133;49.486;12.176;2023-07-31T12:43:13;2.90;;;1.50;;
29044;SDS011;16133;49.486;12.176;2023-07-31T12:45:38;2.92;;;1.40;;
29044;SDS011;16133;49.486;12.176;2023-07-31T12:48:04;2.10;;;1.52;;
29044;SDS011;16133;49.486;12.176;2023-07-31T12:50:29;5.65;;;1.77;;
29044;SDS011;16133;49.486;12.176;2023-07-31T12:52:55;2.20;;;1.35;;
29044;SDS011;16133;49.486;12.176;2023-07-31T12:55:21;4.43;;;1.83;;
29044;SDS011;16133;49.486;12.176;2023-07-31T12:57:47;5.00;;;2.08;;
29044;SDS011;16133;49.486;12.176;2023-07-31T13:00:13;2.58;;;1.58;;
29044;SDS011;16133;49.486;12.176;2023-07-31T13:02:39;3.80;;;1.80;;
29044;SDS011;16133;49.486;12.176;2023-07-31T13:05:05;2.97;;;1.58;;
29044;SDS011;16133;49.486;12.176;2023-07-31T13:07:30;3.30;;;1.75;;
29044;SDS011;16133;49.486;12.176;2023-07-31T13:09:56;3.72;;;2.05;;
29044;SDS011;16133;49.486;12.176;2023-07-31T13:12:21;5.15;;;1.90;;
29044;SDS011;16133;49.486;12.176;2023-07-31T13:14:47;3.95;;;1.90;;
29044;SDS011;16133;49.486;12.176;2023-07-31T13:17:12;3.00;;;1.75;;
29044;SDS011;16133;49.486;12.176;2023-07-31T13:19:37;5.82;;;1.77;;
29044;SDS011;16133;49.486;12.176;2023-07-31T13:22:03;2.92;;;1.90;;
29044;SDS011;16133;49.486;12.176;2023-07-31T13:24:29;4.50;;;2.17;;
29044;SDS011;16133;49.486;12.176;2023-07-31T13:26:55;4.82;;;1.63;;
29044;SDS011;16133;49.486;12.176;2023-07-31T13:29:20;4.78;;;1.77;;
29044;SDS011;16133;49.486;12.176;2023-07-31T13:31:46;3.83;;;1.95;;
29044;SDS011;16133;49.486;12.176;2023-07-31T13:34:12;3.25;;;1.88;;
29044;SDS011;16133;49.486;12.176;2023-07-31T13:36:37;5.25;;;1.85;;
29044;SDS011;16133;49.486;12.176;2023-07-31T13:39:03;8.27;;;1.70;;
29044;SDS011;16133;49.486;12.176;2023-07-31T13:41:28;2.65;;;1.58;;
29044;SDS011;16133;49.486;12.176;2023-07-31T13:43:54;4.47;;;1.90;;
29044;SDS011;16133;49.486;12.176;2023-07-31T13:46:19;3.83;;;1.75;;
29044;SDS011;16133;49.486;12.176;2023-07-31T13:48:44;5.80;;;1.88;;
29044;SDS011;16133;49.486;12.176;2023-07-31T13:51:10;3.35;;;1.88;;
29044;SDS011;16133;49.486;12.176;2023-07-31T13:53:35;3.80;;;2.03;;
29044;SDS011;16133;49.486;12.176;2023-07-31T13:56:00;5.03;;;1.98;;
29044;SDS011;16133;49.486;12.176;2023-07-31T13:58:26;8.95;;;2.47;;
29044;SDS011;16133;49.486;12.176;2023-07-31T14:00:51;4.32;;;2.00;;
29044;SDS011;16133;49.486;12.176;2023-07-31T14:03:17;2.70;;;1.90;;
29044;SDS011;16133;49.486;12.176;2023-07-31T14:05:42;3.90;;;1.98;;
29044;SDS011;16133;49.486;12.176;2023-07-31T14:08:07;5.22;;;2.53;;
29044;SDS011;16133;49.486;12.176;2023-07-31T14:10:33;3.38;;;2.08;;
29044;SDS011;16133;49.486;12.176;2023-07-31T14:12:58;5.00;;;2.40;;
29044;SDS011;16133;49.486;12.176;2023-07-31T14:15:23;8.00;;;2.58;;
29044;SDS011;16133;49.486;12.176;2023-07-31T14:17:49;2.85;;;2.22;;
29044;SDS011;16133;49.486;12.176;2023-07-31T14:20:14;4.90;;;2.45;;
29044;SDS011;16133;49.486;12.176;2023-07-31T14:22:40;3.30;;;2.15;;
29044;SDS011;16133;49.486;12.176;2023-07-31T14:25:05;4.55;;;2.80;;
29044;SDS011;16133;49.486;12.176;2023-07-31T14:27:31;4.45;;;2.28;;
29044;SDS011;16133;49.486;12.176;2023-07-31T14:29:56;5.70;;;2.58;;
29044;SDS011;16133;49.486;12.176;2023-07-31T14:32:22;6.25;;;2.80;;
29044;SDS011;16133;49.486;12.176;2023-07-31T14:34:50;3.55;;;2.20;;
29044;SDS011;16133;49.486;12.176;2023-07-31T14:37:15;8.80;;;2.47;;
29044;SDS011;16133;49.486;12.176;2023-07-31T14:39:41;3.40;;;2.33;;
29044;SDS011;16133;49.486;12.176;2023-07-31T14:42:06;4.28;;;2.60;;
29044;SDS011;16133;49.486;12.176;2023-07-31T14:44:32;6.40;;;2.78;;
29044;SDS011;16133;49.486;12.176;2023-07-31T14:46:57;5.85;;;3.20;;